Time;durP1;ratioP1;P1;durP2;ratioP2;P2;SDS_P1;SDS_P2;PMS_P1;PMS_P2;Temp;Humidity;BMP_temperature;BMP_pressure;BME280_temperature;BME280_humidity;BME280_pressure;Samples;Min_cycle;Max_cycle;Signal;HPM_P1;HPM_P2
2022/01/31 00:02:32;;;;;;;11.32;3.47;;;1.00;99.90;;;;;;5084318;27;20536;-61
2022/01/31 00:05:13;;;;;;;12.07;4.35;;;1.00;99.90;;;;;;5084329;28;20675;-61
2022/01/31 00:07:52;;;;;;;14.23;3.83;;;1.10;99.90;;;;;;5083839;28;20548;-59
2022/01/31 00:10:32;;;;;;;9.07;3.33;;;1.10;99.90;;;;;;5166507;27;20536;-60
2022/01/31 00:13:18;;;;;;;9.18;3.13;;;1.10;99.90;;;;;;5084350;28;20667;-62
2022/01/31 00:15:58;;;;;;;11.60;3.65;;;1.10;99.90;;;;;;5146296;27;20645;-60
2022/01/31 00:18:37;;;;;;;7.57;3.20;;;1.10;99.90;;;;;;5145369;27;20542;-60
2022/01/31 00:21:17;;;;;;;12.23;3.55;;;1.10;99.90;;;;;;5145998;27;20531;-59
2022/01/31 00:23:57;;;;;;;13.70;3.47;;;1.10;99.90;;;;;;5084573;27;20565;-60
2022/01/31 00:26:37;;;;;;;7.32;2.92;;;1.10;99.90;;;;;;5084601;28;20688;-61
2022/01/31 00:29:17;;;;;;;12.05;3.67;;;1.10;99.90;;;;;;5104157;27;20583;-59
2022/01/31 00:31:57;;;;;;;11.27;3.30;;;1.00;99.90;;;;;;5125090;27;20540;-59
2022/01/31 00:34:36;;;;;;;12.95;3.50;;;1.10;99.90;;;;;;5105269;27;20654;-60
2022/01/31 00:37:16;;;;;;;11.98;3.17;;;1.00;99.90;;;;;;5083639;27;20559;-62
2022/01/31 00:39:56;;;;;;;13.18;3.50;;;1.00;99.90;;;;;;5104876;27;20949;-61
2022/01/31 00:42:36;;;;;;;12.52;2.95;;;0.90;99.90;;;;;;5145863;27;21202;-59
2022/01/31 00:45:19;;;;;;;15.27;4.07;;;0.90;99.90;;;;;;5125540;27;20663;-61
2022/01/31 00:48:01;;;;;;;10.95;3.70;;;0.90;99.90;;;;;;5083933;27;21159;-61
2022/01/31 00:50:46;;;;;;;10.43;3.63;;;0.90;99.90;;;;;;5104761;27;20905;-58
2022/01/31 00:53:26;;;;;;;10.50;3.40;;;0.90;99.90;;;;;;5145680;27;20641;-62
2022/01/31 00:56:06;;;;;;;10.23;3.70;;;1.00;99.90;;;;;;5084756;28;20679;-60
2022/01/31 00:58:46;;;;;;;12.07;4.30;;;1.00;99.90;;;;;;5083864;28;20703;-59
2022/01/31 01:01:26;;;;;;;10.13;3.30;;;1.00;99.90;;;;;;5125319;27;20968;-60
2022/01/31 01:04:06;;;;;;;11.23;3.97;;;1.00;99.90;;;;;;5145910;27;20657;-60
2022/01/31 01:06:45;;;;;;;8.52;3.17;;;0.90;99.90;;;;;;5105469;27;20538;-59
2022/01/31 01:09:25;;;;;;;10.23;4.00;;;0.90;99.90;;;;;;5125303;27;20664;-60
2022/01/31 01:12:06;;;;;;;13.75;4.13;;;0.90;99.90;;;;;;5104400;27;20550;-60
2022/01/31 01:14:46;;;;;;;12.05;3.17;;;0.80;99.90;;;;;;5104515;27;21050;-60
2022/01/31 01:17:25;;;;;;;14.68;3.72;;;0.80;99.90;;;;;;5083969;28;20672;-59
2022/01/31 01:20:05;;;;;;;12.98;3.20;;;0.80;99.90;;;;;;5084431;28;20676;-60
2022/01/31 01:22:45;;;;;;;7.53;3.22;;;0.80;99.90;;;;;;5104978;27;20534;-58
2022/01/31 01:25:24;;;;;;;13.18;3.55;;;0.80;99.90;;;;;;5084626;28;20656;-59
2022/01/31 01:28:04;;;;;;;11.80;3.60;;;0.80;99.90;;;;;;5084071;28;21041;-61
2022/01/31 01:30:44;;;;;;;11.77;3.35;;;0.80;99.90;;;;;;5146040;27;20657;-60
2022/01/31 01:33:25;;;;;;;9.88;3.28;;;0.80;99.90;;;;;;5084506;28;20667;-61
2022/01/31 01:36:04;;;;;;;11.98;3.30;;;0.80;99.90;;;;;;5146291;27;20677;-64
2022/01/31 01:38:43;;;;;;;11.68;2.95;;;0.70;99.90;;;;;;5145819;27;21052;-61
2022/01/31 01:41:23;;;;;;;7.15;3.42;;;0.80;99.90;;;;;;5080418;28;21358;-63
2022/01/31 01:44:04;;;;;;;14.05;3.40;;;0.80;99.90;;;;;;5093820;27;21001;-59
2022/01/31 01:46:43;;;;;;;9.77;3.20;;;0.80;99.90;;;;;;5073031;28;20683;-60
2022/01/31 01:49:23;;;;;;;11.15;3.40;;;0.70;99.90;;;;;;5083905;28;20672;-62
2022/01/31 01:52:03;;;;;;;10.30;3.35;;;0.70;99.90;;;;;;5143261;27;20542;-61
2022/01/31 01:54:42;;;;;;;8.30;2.30;;;0.70;99.90;;;;;;5082293;27;20593;-61
2022/01/31 01:57:24;;;;;;;9.02;2.95;;;0.80;99.90;;;;;;5080486;27;20931;-60
2022/01/31 02:00:07;;;;;;;10.57;3.33;;;0.80;99.90;;;;;;5074452;28;20557;-60
2022/01/31 02:02:47;;;;;;;11.00;3.47;;;0.80;99.90;;;;;;5138990;27;20558;-61
2022/01/31 02:05:26;;;;;;;10.35;3.40;;;0.80;99.90;;;;;;5083323;28;20684;-60
2022/01/31 02:08:14;;;;;;;10.85;3.22;;;0.80;99.90;;;;;;5072050;27;20536;-60
2022/01/31 02:10:53;;;;;;;10.30;3.50;;;0.80;99.90;;;;;;5097398;27;20560;-62
2022/01/31 02:13:32;;;;;;;10.38;2.85;;;0.70;99.90;;;;;;5077448;28;20583;-60
2022/01/31 02:16:12;;;;;;;13.68;4.22;;;0.60;99.90;;;;;;5146719;27;20538;-62
2022/01/31 02:18:54;;;;;;;8.43;3.70;;;0.50;99.90;;;;;;5066701;28;20961;-60
2022/01/31 02:21:33;;;;;;;9.73;3.47;;;0.50;99.90;;;;;;5084652;28;20687;-62
2022/01/31 02:24:14;;;;;;;16.85;3.58;;;0.40;99.90;;;;;;5124548;27;20544;-60
2022/01/31 02:26:54;;;;;;;10.50;3.28;;;0.40;99.90;;;;;;5101289;27;20570;-60
2022/01/31 02:29:34;;;;;;;12.48;2.80;;;0.40;99.90;;;;;;5105173;27;21051;-60
2022/01/31 02:32:17;;;;;;;14.05;3.35;;;0.40;99.90;;;;;;5101507;27;20553;-59
2022/01/31 02:34:58;;;;;;;7.72;3.35;;;0.40;99.90;;;;;;5104317;27;20534;-59
2022/01/31 02:37:37;;;;;;;7.32;3.00;;;0.40;99.90;;;;;;5104270;27;20639;-60
2022/01/31 02:40:17;;;;;;;7.15;2.55;;;0.40;99.90;;;;;;5084516;28;20539;-60
2022/01/31 02:42:57;;;;;;;11.07;3.55;;;0.30;99.90;;;;;;5104637;27;20550;-62
2022/01/31 02:45:37;;;;;;;14.30;2.90;;;0.30;99.90;;;;;;5145850;27;20948;-59
2022/01/31 02:48:20;;;;;;;10.80;3.55;;;0.30;99.90;;;;;;5124720;27;20540;-62
2022/01/31 02:50:59;;;;;;;13.73;2.92;;;0.30;99.90;;;;;;5125322;27;21232;-59
2022/01/31 02:53:41;;;;;;;9.05;4.13;;;0.40;99.90;;;;;;5104142;27;20546;-59
2022/01/31 02:56:21;;;;;;;8.95;3.30;;;0.40;99.90;;;;;;5124568;27;20540;-62
2022/01/31 02:59:00;;;;;;;7.13;2.92;;;0.40;99.90;;;;;;5093967;27;20962;-61
2022/01/31 03:01:40;;;;;;;11.68;2.85;;;0.50;99.90;;;;;;5150880;27;20542;-60
2022/01/31 03:04:20;;;;;;;11.57;3.08;;;0.50;99.90;;;;;;5104438;27;20546;-60
2022/01/31 03:07:00;;;;;;;7.95;3.17;;;0.50;99.90;;;;;;5146273;27;20535;-59
2022/01/31 03:09:40;;;;;;;9.38;3.90;;;0.50;99.90;;;;;;5078676;28;20550;-59
2022/01/31 03:12:20;;;;;;;9.98;4.07;;;0.50;99.90;;;;;;5124035;27;21064;-60
2022/01/31 03:14:59;;;;;;;13.02;3.58;;;0.50;99.90;;;;;;5103575;27;20557;-61
2022/01/31 03:17:42;;;;;;;10.65;3.20;;;0.50;99.90;;;;;;5136130;27;20558;-61
2022/01/31 03:20:23;;;;;;;12.50;6.22;;;0.40;99.90;;;;;;5104370;27;21062;-60
2022/01/31 03:23:03;;;;;;;11.88;3.38;;;0.40;99.90;;;;;;5118990;27;20556;-61
2022/01/31 03:25:42;;;;;;;11.57;3.03;;;0.40;99.90;;;;;;5144657;27;20546;-61
2022/01/31 03:28:22;;;;;;;8.25;2.65;;;0.30;99.90;;;;;;5127464;27;21046;-61
2022/01/31 03:31:02;;;;;;;7.68;3.10;;;0.30;99.90;;;;;;5145792;27;20542;-60
2022/01/31 03:33:41;;;;;;;9.75;2.50;;;0.30;99.90;;;;;;5083501;27;20543;-59
2022/01/31 03:36:21;;;;;;;6.85;2.75;;;0.30;99.90;;;;;;5146270;27;20527;-61
2022/01/31 03:39:01;;;;;;;5.90;2.65;;;0.20;99.90;;;;;;5083705;27;20547;-63
2022/01/31 03:41:41;;;;;;;10.38;2.28;;;0.20;99.90;;;;;;5146502;27;20677;-59
2022/01/31 03:44:21;;;;;;;9.63;2.80;;;0.20;99.90;;;;;;5084325;27;21019;-61
2022/01/31 03:47:01;;;;;;;9.75;2.42;;;0.30;99.90;;;;;;5124714;27;20547;-61
2022/01/31 03:49:40;;;;;;;7.90;2.50;;;0.30;99.90;;;;;;5081150;28;20686;-59
2022/01/31 03:52:20;;;;;;;8.63;2.30;;;0.20;99.90;;;;;;5140508;27;20669;-62
2022/01/31 03:55:00;;;;;;;7.22;2.53;;;0.30;99.90;;;;;;5084097;27;20539;-58
2022/01/31 03:57:40;;;;;;;7.47;2.42;;;0.40;99.90;;;;;;5076323;28;21211;-59
2022/01/31 04:00:22;;;;;;;6.13;2.55;;;0.40;99.90;;;;;;5084274;27;21072;-61
2022/01/31 04:03:01;;;;;;;6.22;2.72;;;0.40;99.90;;;;;;5105188;27;20689;-59
2022/01/31 04:05:41;;;;;;;6.65;2.70;;;0.40;99.90;;;;;;5104313;27;20550;-60
2022/01/31 04:08:21;;;;;;;8.32;2.50;;;0.50;99.90;;;;;;5145576;27;20665;-61
2022/01/31 04:11:01;;;;;;;4.40;2.03;;;0.50;99.90;;;;;;5077707;27;20587;-59
2022/01/31 04:13:40;;;;;;;9.43;2.50;;;0.50;99.90;;;;;;5103212;27;20677;-59
2022/01/31 04:16:20;;;;;;;7.75;2.55;;;0.50;99.90;;;;;;5103591;27;21115;-60
2022/01/31 04:19:00;;;;;;;11.27;3.47;;;0.50;99.90;;;;;;5082889;28;21055;-59
2022/01/31 04:21:40;;;;;;;9.23;3.42;;;0.60;99.90;;;;;;5104181;27;20968;-61
2022/01/31 04:24:23;;;;;;;9.15;2.95;;;0.60;99.90;;;;;;5124973;27;20540;-59
2022/01/31 04:27:06;;;;;;;9.13;3.45;;;0.60;99.90;;;;;;5104680;27;20681;-63
2022/01/31 04:29:48;;;;;;;6.78;3.17;;;0.60;99.90;;;;;;5081253;27;20555;-60
2022/01/31 04:32:27;;;;;;;7.57;2.95;;;0.60;99.90;;;;;;5091772;27;20577;-59
2022/01/31 04:35:08;;;;;;;6.75;2.75;;;0.60;99.90;;;;;;5104948;27;20538;-60
2022/01/31 04:37:47;;;;;;;5.28;2.60;;;0.60;99.90;;;;;;5075153;28;20682;-62
2022/01/31 04:40:27;;;;;;;8.27;3.30;;;0.60;99.90;;;;;;5141047;27;20662;-61
2022/01/31 04:43:07;;;;;;;6.78;3.17;;;0.60;99.90;;;;;;5097668;27;20677;-59
2022/01/31 04:45:48;;;;;;;7.55;3.70;;;0.60;99.90;;;;;;5077760;27;20555;-59
2022/01/31 04:48:28;;;;;;;8.65;3.78;;;0.70;99.90;;;;;;5075230;28;20723;-60
2022/01/31 04:51:08;;;;;;;8.02;3.75;;;0.70;99.90;;;;;;5087136;27;20664;-60
2022/01/31 04:53:47;;;;;;;7.90;3.67;;;0.70;99.90;;;;;;5103593;27;20689;-61
2022/01/31 04:56:27;;;;;;;8.05;2.40;;;0.80;99.90;;;;;;5139432;27;20546;-60
2022/01/31 04:59:07;;;;;;;5.68;3.10;;;0.80;99.90;;;;;;5145056;27;20550;-59
2022/01/31 05:01:48;;;;;;;8.00;2.35;;;0.80;99.90;;;;;;5083653;28;20539;-59
2022/01/31 05:04:28;;;;;;;5.38;2.72;;;0.80;99.90;;;;;;5105133;27;21010;-59
2022/01/31 05:07:09;;;;;;;6.72;3.13;;;0.80;99.90;;;;;;5104442;27;20595;-61
2022/01/31 05:09:48;;;;;;;5.00;3.10;;;0.80;99.90;;;;;;5104552;27;20574;-60
2022/01/31 05:12:28;;;;;;;13.77;3.15;;;0.80;99.90;;;;;;5145677;27;20571;-61
2022/01/31 05:15:08;;;;;;;5.45;2.65;;;0.80;99.90;;;;;;5084468;27;20672;-59
2022/01/31 05:17:48;;;;;;;4.05;2.25;;;0.80;99.90;;;;;;5124752;27;21077;-61
2022/01/31 05:20:27;;;;;;;6.10;2.30;;;0.80;99.90;;;;;;5083969;28;20663;-59
2022/01/31 05:23:07;;;;;;;6.30;3.15;;;0.80;99.90;;;;;;5084353;27;20566;-60
2022/01/31 05:25:47;;;;;;;7.53;4.35;;;0.80;99.90;;;;;;5084624;27;20551;-59
2022/01/31 05:28:27;;;;;;;9.20;2.85;;;0.90;99.90;;;;;;5107543;22;20594;-61
2022/01/31 05:31:07;;;;;;;6.28;3.40;;;0.90;99.90;;;;;;5083175;28;20942;-62
2022/01/31 05:33:46;;;;;;;4.95;3.08;;;0.90;99.90;;;;;;5104692;27;20657;-60
2022/01/31 05:36:26;;;;;;;7.63;3.10;;;0.80;99.90;;;;;;5084818;28;20668;-58
2022/01/31 05:39:06;;;;;;;4.07;2.50;;;0.90;99.90;;;;;;5157831;27;20544;-58
2022/01/31 05:41:46;;;;;;;6.05;2.60;;;0.80;99.90;;;;;;5146153;27;20554;-59
2022/01/31 05:44:27;;;;;;;5.60;2.65;;;0.80;99.90;;;;;;5103542;27;20574;-60
2022/01/31 05:47:06;;;;;;;7.68;2.45;;;0.80;99.90;;;;;;5082632;28;20981;-59
2022/01/31 05:49:45;;;;;;;4.00;2.60;;;0.90;99.90;;;;;;5106582;27;20553;-59
2022/01/31 05:52:26;;;;;;;4.72;2.90;;;0.90;99.90;;;;;;5123695;27;20539;-60
2022/01/31 05:55:06;;;;;;;6.65;2.72;;;0.90;99.90;;;;;;5135883;27;20668;-60
2022/01/31 05:57:45;;;;;;;4.78;2.90;;;0.90;99.90;;;;;;5073457;27;20599;-60
2022/01/31 06:00:25;;;;;;;7.10;3.40;;;0.80;99.90;;;;;;5103445;27;21078;-59
2022/01/31 06:03:05;;;;;;;8.43;4.15;;;0.90;99.90;;;;;;5144254;27;20523;-60
2022/01/31 06:05:44;;;;;;;7.07;4.97;;;0.80;99.90;;;;;;5103786;27;20545;-59
2022/01/31 06:08:24;;;;;;;8.60;4.68;;;0.80;99.90;;;;;;5076957;28;20678;-60
2022/01/31 06:11:04;;;;;;;10.32;5.25;;;0.90;99.90;;;;;;5103720;27;21015;-59
2022/01/31 06:13:45;;;;;;;8.68;5.00;;;0.80;99.90;;;;;;5082526;28;20676;-59
2022/01/31 06:16:25;;;;;;;14.52;5.20;;;0.90;99.90;;;;;;5145261;27;20538;-59
2022/01/31 06:19:05;;;;;;;7.05;5.50;;;0.90;99.90;;;;;;5141202;27;21066;-60
2022/01/31 06:21:45;;;;;;;8.60;4.40;;;0.90;99.90;;;;;;5125088;27;20543;-59
2022/01/31 06:24:25;;;;;;;7.00;4.38;;;0.90;99.90;;;;;;5135950;27;20683;-58
2022/01/31 06:27:05;;;;;;;6.30;3.15;;;0.90;99.90;;;;;;5100215;27;20565;-59
2022/01/31 06:29:46;;;;;;;6.43;3.72;;;0.90;99.90;;;;;;5056801;27;20666;-59
2022/01/31 06:32:26;;;;;;;5.50;3.22;;;0.80;99.90;;;;;;5141893;27;21004;-61
2022/01/31 06:35:07;;;;;;;10.07;4.20;;;0.90;99.90;;;;;;5084246;28;20671;-59
2022/01/31 06:37:45;;;;;;;6.13;2.92;;;0.80;99.90;;;;;;5143700;27;20681;-62
2022/01/31 06:40:25;;;;;;;8.20;3.33;;;0.80;99.90;;;;;;5123313;27;21114;-62
2022/01/31 06:43:05;;;;;;;5.93;2.70;;;0.80;99.90;;;;;;5130113;27;21148;-58
2022/01/31 06:45:45;;;;;;;6.63;2.53;;;0.90;99.90;;;;;;5080892;28;20600;-60
2022/01/31 06:48:25;;;;;;;5.13;3.45;;;0.80;99.90;;;;;;5076849;27;20555;-60
2022/01/31 06:51:05;;;;;;;5.47;2.60;;;0.90;99.90;;;;;;5083699;27;20548;-60
2022/01/31 06:53:48;;;;;;;10.00;3.13;;;0.90;99.90;;;;;;5084052;27;20531;-59
2022/01/31 06:56:30;;;;;;;6.65;3.05;;;0.80;99.90;;;;;;5084376;27;20564;-59
2022/01/31 06:59:10;;;;;;;5.93;2.70;;;0.90;99.90;;;;;;5083697;28;20679;-59
2022/01/31 07:01:50;;;;;;;7.43;3.78;;;0.90;99.90;;;;;;5095261;27;21104;-60
2022/01/31 07:04:30;;;;;;;6.10;2.33;;;0.90;99.90;;;;;;5075038;27;21011;-59
2022/01/31 07:07:10;;;;;;;7.15;2.42;;;0.90;99.90;;;;;;5083552;27;20907;-59
2022/01/31 07:09:50;;;;;;;9.20;2.67;;;0.90;99.90;;;;;;5143332;27;20542;-58
2022/01/31 07:12:32;;;;;;;5.60;2.97;;;0.90;99.90;;;;;;5083799;27;20539;-59
2022/01/31 07:15:13;;;;;;;5.45;3.10;;;1.00;99.90;;;;;;5124972;27;20537;-60
2022/01/31 07:17:52;;;;;;;7.75;2.65;;;1.00;99.90;;;;;;5103895;27;20825;-61
2022/01/31 07:20:38;;;;;;;4.07;2.78;;;1.00;99.90;;;;;;5072738;27;20559;-59
2022/01/31 07:23:23;;;;;;;5.07;3.13;;;0.90;99.90;;;;;;5083553;27;20543;-61
2022/01/31 07:26:03;;;;;;;5.00;3.17;;;0.90;99.90;;;;;;5080964;28;21660;-60
2022/01/31 07:28:43;;;;;;;6.15;3.10;;;0.80;99.90;;;;;;5103696;27;21179;-60
2022/01/31 07:31:23;;;;;;;9.25;2.92;;;0.80;99.90;;;;;;5102942;27;20669;-58
2022/01/31 07:34:05;;;;;;;4.72;2.72;;;0.80;99.90;;;;;;5124773;27;20544;-58
2022/01/31 07:36:45;;;;;;;6.55;2.58;;;0.80;99.90;;;;;;5100539;27;20558;-62
2022/01/31 07:39:26;;;;;;;12.38;5.85;;;0.80;99.90;;;;;;5140994;27;20681;-59
2022/01/31 07:42:06;;;;;;;8.63;3.53;;;0.80;99.90;;;;;;5141928;27;21040;-58
2022/01/31 07:44:46;;;;;;;9.82;3.42;;;0.80;99.90;;;;;;5084284;28;20675;-59
2022/01/31 07:47:26;;;;;;;6.47;3.20;;;0.80;99.90;;;;;;5083355;28;20672;-60
2022/01/31 07:50:08;;;;;;;5.47;3.22;;;0.80;99.90;;;;;;5084397;28;20687;-61
2022/01/31 07:52:48;;;;;;;5.47;3.63;;;0.80;99.90;;;;;;5146151;27;20664;-61
2022/01/31 07:55:28;;;;;;;8.85;3.72;;;0.80;99.90;;;;;;5084189;27;20555;-59
2022/01/31 07:58:07;;;;;;;7.55;5.15;;;0.70;99.90;;;;;;5075954;27;20586;-58
2022/01/31 08:00:47;;;;;;;9.77;5.13;;;0.70;99.90;;;;;;5103250;27;21201;-59
2022/01/31 08:03:27;;;;;;;5.07;3.65;;;0.70;99.90;;;;;;5117779;27;20546;-59
2022/01/31 08:06:07;;;;;;;5.93;3.20;;;0.70;99.90;;;;;;5145975;27;20661;-60
2022/01/31 08:08:47;;;;;;;7.57;3.83;;;0.70;99.90;;;;;;5145666;27;20665;-60
2022/01/31 08:11:32;;;;;;;4.80;2.75;;;0.80;99.90;;;;;;5084203;28;21125;-59
2022/01/31 08:14:14;;;;;;;4.38;3.05;;;0.80;99.90;;;;;;5104520;27;20534;-61
2022/01/31 08:16:53;;;;;;;5.22;3.38;;;0.90;99.90;;;;;;5083552;28;20656;-64
2022/01/31 08:19:33;;;;;;;7.55;3.70;;;0.90;99.90;;;;;;5083834;27;20555;-58
2022/01/31 08:22:12;;;;;;;6.18;3.25;;;0.90;99.90;;;;;;5120837;27;20552;-59
2022/01/31 08:24:52;;;;;;;3.42;2.60;;;0.90;99.90;;;;;;5083613;27;20561;-59
2022/01/31 08:27:32;;;;;;;4.15;3.05;;;0.80;99.90;;;;;;5116704;27;20565;-59
2022/01/31 08:30:18;;;;;;;8.30;3.50;;;0.80;99.90;;;;;;5143885;27;20666;-60
2022/01/31 08:33:02;;;;;;;6.75;3.13;;;0.80;99.90;;;;;;5083254;27;21192;-59
2022/01/31 08:35:50;;;;;;;5.25;3.58;;;0.80;99.90;;;;;;5083977;28;20675;-58
2022/01/31 08:38:31;;;;;;;4.97;3.25;;;0.90;99.90;;;;;;5104070;27;20576;-58
2022/01/31 08:41:12;;;;;;;5.13;2.58;;;1.00;99.90;;;;;;5104155;27;20534;-61
2022/01/31 08:43:52;;;;;;;3.97;2.83;;;1.00;99.90;;;;;;5145808;27;20653;-60
2022/01/31 08:46:32;;;;;;;6.30;2.50;;;1.10;99.90;;;;;;5104840;27;20539;-60
2022/01/31 08:49:13;;;;;;;3.13;2.28;;;1.20;99.90;;;;;;5124627;27;20556;-58
2022/01/31 08:51:53;;;;;;;4.28;2.05;;;1.20;99.90;;;;;;5125318;27;20675;-59
2022/01/31 08:54:33;;;;;;;2.72;2.30;;;1.30;99.90;;;;;;5083988;27;20561;-60
2022/01/31 08:57:13;;;;;;;2.65;2.30;;;1.40;99.90;;;;;;5083877;27;21133;-58
2022/01/31 08:59:52;;;;;;;2.83;2.63;;;1.40;99.90;;;;;;5145466;27;20603;-59
2022/01/31 09:02:38;;;;;;;2.75;2.38;;;1.40;99.90;;;;;;5125250;27;20551;-59
2022/01/31 09:05:18;;;;;;;1.85;1.75;;;1.40;99.90;;;;;;5084194;27;20543;-59
2022/01/31 09:07:58;;;;;;;2.03;1.90;;;1.40;99.90;;;;;;5082021;27;21076;-59
2022/01/31 09:10:39;;;;;;;1.35;1.23;;;1.40;99.90;;;;;;5083825;27;20553;-58
2022/01/31 09:13:18;;;;;;;1.20;1.10;;;1.40;99.90;;;;;;5084158;27;20543;-60
2022/01/31 09:15:59;;;;;;;1.25;1.10;;;1.50;99.90;;;;;;5084628;28;20857;-59
2022/01/31 09:18:39;;;;;;;1.20;1.02;;;1.50;99.90;;;;;;5124662;27;20664;-61
2022/01/31 09:21:19;;;;;;;3.00;0.95;;;1.60;99.90;;;;;;5104758;27;20668;-60
2022/01/31 09:23:59;;;;;;;1.20;1.10;;;1.70;99.90;;;;;;5084140;27;20543;-59
2022/01/31 09:26:39;;;;;;;2.30;0.90;;;1.70;99.90;;;;;;5146182;27;20856;-59
2022/01/31 09:29:18;;;;;;;0.90;0.90;;;1.70;99.90;;;;;;5083936;28;21012;-59
2022/01/31 09:31:59;;;;;;;1.02;0.77;;;1.70;99.90;;;;;;5105361;27;20665;-59
2022/01/31 09:34:40;;;;;;;1.13;1.02;;;1.70;99.90;;;;;;5084025;27;21045;-58
2022/01/31 09:37:21;;;;;;;0.80;0.70;;;1.70;99.90;;;;;;5084019;28;20656;-60
2022/01/31 09:40:04;;;;;;;0.70;0.70;;;1.70;99.90;;;;;;5142556;27;20562;-58
2022/01/31 09:43:03;;;;;;;0.73;0.73;;;1.80;99.90;;;;;;5077679;27;20567;-57
2022/01/31 09:45:52;;;;;;;0.80;0.80;;;1.90;99.90;;;;;;5079258;28;20681;-58
2022/01/31 09:48:35;;;;;;;1.95;0.70;;;2.00;99.90;;;;;;5083895;28;20679;-58
2022/01/31 09:51:17;;;;;;;0.93;0.80;;;2.30;99.90;;;;;;5112876;27;20540;-57
2022/01/31 09:54:00;;;;;;;0.50;0.35;;;2.60;99.90;;;;;;5082989;27;21087;-57
2022/01/31 09:56:42;;;;;;;0.63;0.63;;;2.60;99.90;;;;;;5118754;27;21155;-59
2022/01/31 09:59:21;;;;;;;0.40;0.40;;;2.50;99.90;;;;;;5098441;27;20705;-60
2022/01/31 10:02:10;;;;;;;0.45;0.45;;;2.50;99.90;;;;;;5145301;27;20538;-58
2022/01/31 10:04:50;;;;;;;1.20;0.60;;;2.30;99.90;;;;;;5094567;27;21537;-59
2022/01/31 10:07:44;;;;;;;0.40;0.40;;;2.40;99.90;;;;;;5073638;27;21097;-57
2022/01/31 10:10:26;;;;;;;0.70;0.70;;;2.60;99.90;;;;;;5116480;27;20948;-61
2022/01/31 10:16:27;;;;;;;0.35;0.35;;;3.00;99.90;;;;;;5136859;27;20678;-58
2022/01/31 10:19:09;;;;;;;0.57;0.50;;;3.10;99.90;;;;;;5123734;27;20548;-58
2022/01/31 10:21:57;;;;;;;0.40;0.40;;;3.30;99.90;;;;;;5104172;27;20665;-60
2022/01/31 10:24:40;;;;;;;0.50;0.50;;;3.20;99.90;;;;;;5144922;27;20850;-59
2022/01/31 10:27:23;;;;;;;0.85;0.50;;;3.00;99.90;;;;;;5104175;27;20681;-58
2022/01/31 10:30:11;;;;;;;0.68;0.55;;;2.90;99.90;;;;;;5080491;27;20587;-60
2022/01/31 10:32:52;;;;;;;0.65;0.50;;;2.70;99.90;;;;;;5073601;27;20705;-61
2022/01/31 10:35:33;;;;;;;0.80;0.80;;;2.70;99.90;;;;;;5088441;27;21087;-58
2022/01/31 10:38:16;;;;;;;0.88;0.80;;;2.70;99.90;;;;;;5081476;27;20567;-58
2022/01/31 10:44:46;;;;;;;1.65;0.80;;;2.80;99.90;;;;;;5120994;27;21064;-58
2022/01/31 10:50:52;;;;;;;1.05;0.88;;;2.80;99.90;;;;;;5079531;27;21205;-57
2022/01/31 10:53:41;;;;;;;3.70;2.40;;;2.90;99.90;;;;;;5083377;27;20543;-58
2022/01/31 10:56:21;;;;;;;1.85;1.25;;;2.80;99.90;;;;;;5104189;27;20533;-59
2022/01/31 10:59:02;;;;;;;1.65;1.52;;;2.60;99.90;;;;;;5093737;27;20833;-59
2022/01/31 11:01:43;;;;;;;1.95;1.80;;;2.40;99.90;;;;;;5099228;27;20551;-57
2022/01/31 11:04:23;;;;;;;2.42;1.30;;;2.30;99.90;;;;;;5141640;27;20551;-59
2022/01/31 11:07:06;;;;;;;0.90;0.90;;;2.20;99.90;;;;;;5121530;27;20659;-61
2022/01/31 11:09:49;;;;;;;1.63;0.90;;;2.10;99.90;;;;;;5067404;27;20549;-57
2022/01/31 11:12:29;;;;;;;1.65;1.10;;;2.10;99.90;;;;;;5084540;28;20663;-60
2022/01/31 11:15:09;;;;;;;1.27;1.17;;;2.10;99.90;;;;;;5105044;27;20546;-59
2022/01/31 11:17:56;;;;;;;1.23;1.13;;;2.20;99.90;;;;;;5082914;27;20568;-60
2022/01/31 11:20:40;;;;;;;2.00;1.20;;;2.30;99.90;;;;;;5126001;27;20531;-58
2022/01/31 11:23:21;;;;;;;2.75;1.10;;;2.70;99.90;;;;;;5145708;27;20709;-58
2022/01/31 11:26:02;;;;;;;2.33;1.10;;;3.20;99.90;;;;;;5115119;27;20561;-57
2022/01/31 11:28:46;;;;;;;1.70;1.10;;;3.40;99.90;;;;;;5084008;28;20571;-56
2022/01/31 11:31:26;;;;;;;2.10;1.00;;;3.60;99.90;;;;;;5080355;28;20551;-59
2022/01/31 11:34:07;;;;;;;1.83;1.50;;;3.80;99.90;;;;;;5071899;27;20572;-57
2022/01/31 11:36:47;;;;;;;2.17;1.25;;;3.90;99.90;;;;;;5118821;27;20542;-58
2022/01/31 11:39:26;;;;;;;1.30;1.20;;;4.00;99.90;;;;;;5090078;27;20559;-58
2022/01/31 11:42:07;;;;;;;1.40;1.20;;;4.20;99.90;;;;;;5124028;27;20590;-58
2022/01/31 11:44:53;;;;;;;3.67;2.15;;;4.40;99.90;;;;;;5136043;27;20529;-57
2022/01/31 11:47:36;;;;;;;2.53;1.52;;;4.70;99.90;;;;;;5083035;28;20605;-58
2022/01/31 11:50:15;;;;;;;2.47;1.52;;;4.90;99.90;;;;;;5124264;27;20539;-56
2022/01/31 11:52:58;;;;;;;2.05;1.67;;;5.10;99.90;;;;;;5103305;27;21082;-58
2022/01/31 11:55:39;;;;;;;3.05;1.73;;;5.20;99.90;;;;;;5102494;27;20897;-58
2022/01/31 11:58:18;;;;;;;2.45;2.20;;;5.20;99.90;;;;;;5076859;27;21039;-57
2022/01/31 12:01:01;;;;;;;1.58;1.48;;;5.10;99.90;;;;;;5144150;27;20584;-60
2022/01/31 12:03:50;;;;;;;1.63;1.30;;;4.90;99.90;;;;;;5061301;27;21109;-58
2022/01/31 12:06:30;;;;;;;1.42;1.33;;;4.90;99.90;;;;;;5083282;27;20567;-57
2022/01/31 12:09:16;;;;;;;1.65;1.13;;;4.80;99.90;;;;;;5099632;27;20590;-60
2022/01/31 12:12:03;;;;;;;0.80;0.80;;;4.80;99.90;;;;;;5103609;27;20538;-58
2022/01/31 12:14:49;;;;;;;1.10;0.90;;;4.80;99.90;;;;;;5078950;28;20700;-59
2022/01/31 12:17:59;;;;;;;1.25;1.10;;;4.50;99.90;;;;;;5077790;28;21045;-59
2022/01/31 12:23:51;;;;;;;1.15;0.93;;;4.30;99.90;;;;;;5134320;27;20687;-59
2022/01/31 12:26:37;;;;;;;1.90;0.90;;;4.20;99.90;;;;;;5099226;27;20572;-59
2022/01/31 12:29:18;;;;;;;1.70;1.00;;;3.80;99.90;;;;;;5068147;28;20717;-58
2022/01/31 12:32:09;;;;;;;0.70;0.70;;;3.60;99.90;;;;;;5101121;27;20681;-58
2022/01/31 12:34:58;;;;;;;1.38;0.88;;;3.40;99.90;;;;;;5103331;27;20537;-58
2022/01/31 12:37:40;;;;;;;1.25;1.00;;;3.20;99.90;;;;;;5120087;27;21214;-57
2022/01/31 12:40:28;;;;;;;0.95;0.80;;;3.30;99.90;;;;;;5084665;28;20656;-60
2022/01/31 12:43:13;;;;;;;1.00;0.80;;;3.40;99.90;;;;;;5084390;27;20859;-58
2022/01/31 12:46:08;;;;;;;1.05;0.88;;;3.50;99.90;;;;;;5098446;27;20559;-59
2022/01/31 12:49:10;;;;;;;0.80;0.80;;;3.70;99.90;;;;;;5055457;28;21027;-58
2022/01/31 12:52:04;;;;;;;0.88;0.80;;;3.90;99.90;;;;;;5098543;27;20554;-58
2022/01/31 12:54:52;;;;;;;1.92;0.75;;;4.00;99.90;;;;;;5120094;27;20548;-60
2022/01/31 12:57:31;;;;;;;0.65;0.65;;;4.00;99.90;;;;;;5080124;28;20572;-59
2022/01/31 13:00:12;;;;;;;0.88;0.80;;;3.90;99.90;;;;;;5104609;27;20568;-58
2022/01/31 13:02:53;;;;;;;1.00;0.98;;;3.80;99.90;;;;;;5103824;27;21197;-57
2022/01/31 13:05:38;;;;;;;1.00;0.85;;;3.60;99.90;;;;;;5084318;27;21140;-58
2022/01/31 13:08:21;;;;;;;0.73;0.73;;;3.50;99.90;;;;;;5124975;27;20555;-59
2022/01/31 13:11:00;;;;;;;0.98;0.90;;;3.50;99.90;;;;;;5146392;27;20645;-61
2022/01/31 13:13:40;;;;;;;0.85;0.80;;;3.40;99.90;;;;;;5075874;28;20711;-58
2022/01/31 13:16:21;;;;;;;1.70;1.13;;;3.50;99.90;;;;;;5133691;27;21034;-58
2022/01/31 13:19:01;;;;;;;1.65;1.20;;;3.50;99.90;;;;;;5066026;28;20685;-58
2022/01/31 13:21:42;;;;;;;1.23;1.13;;;3.50;99.90;;;;;;5083757;28;20667;-58
2022/01/31 13:24:33;;;;;;;1.48;0.80;;;3.60;99.90;;;;;;5103638;27;21143;-59
2022/01/31 13:27:16;;;;;;;1.10;1.00;;;3.60;99.90;;;;;;5104080;27;20549;-58
2022/01/31 13:29:56;;;;;;;1.13;1.13;;;3.60;99.90;;;;;;5145797;27;20673;-59
2022/01/31 13:32:37;;;;;;;1.30;1.00;;;3.60;99.90;;;;;;5104695;27;21147;-58
2022/01/31 13:35:20;;;;;;;0.85;0.82;;;3.60;99.90;;;;;;5084372;28;20676;-56
2022/01/31 13:38:01;;;;;;;1.38;0.80;;;3.40;99.90;;;;;;5079276;28;20688;-58
2022/01/31 13:40:44;;;;;;;0.88;0.75;;;3.40;99.90;;;;;;5084123;28;21028;-58
2022/01/31 13:43:29;;;;;;;1.40;1.05;;;3.40;99.90;;;;;;5103389;27;20542;-59
2022/01/31 13:46:15;;;;;;;1.27;1.17;;;3.30;99.90;;;;;;5099206;27;20580;-59
2022/01/31 13:49:01;;;;;;;1.27;1.13;;;3.30;99.90;;;;;;5081537;28;20679;-62
2022/01/31 13:51:44;;;;;;;1.98;1.33;;;3.40;99.90;;;;;;5103824;27;20534;-58
2022/01/31 13:54:23;;;;;;;2.35;1.00;;;3.50;99.90;;;;;;5083882;27;20573;-58
2022/01/31 13:57:04;;;;;;;0.70;0.63;;;3.50;99.90;;;;;;5104451;27;20669;-60
2022/01/31 13:59:43;;;;;;;0.63;0.63;;;3.40;99.90;;;;;;5104605;27;21047;-60
2022/01/31 14:02:23;;;;;;;1.25;1.10;;;3.30;99.90;;;;;;5084880;28;20975;-60
2022/01/31 14:05:03;;;;;;;1.15;1.02;;;3.10;99.90;;;;;;5145812;27;20960;-58
2022/01/31 14:07:42;;;;;;;1.27;1.10;;;3.00;99.90;;;;;;5131086;27;20723;-59
2022/01/31 14:10:27;;;;;;;1.20;1.10;;;3.00;99.90;;;;;;5074483;28;20693;-58
2022/01/31 14:13:07;;;;;;;1.77;1.10;;;3.00;99.90;;;;;;5094069;27;20556;-62
2022/01/31 14:15:51;;;;;;;1.20;0.70;;;3.00;99.90;;;;;;5082462;27;21072;-58
2022/01/31 14:18:32;;;;;;;0.70;0.70;;;2.90;99.90;;;;;;5077409;27;21105;-61
2022/01/31 14:21:11;;;;;;;0.70;0.70;;;2.80;99.90;;;;;;5084769;27;20566;-57
2022/01/31 14:23:54;;;;;;;1.40;1.30;;;2.80;99.90;;;;;;5123909;27;20532;-62